Time;durP1;ratioP1;P1;durP2;ratioP2;P2;SDS_P1;SDS_P2;PMS_P1;PMS_P2;Temp;Humidity;BMP_temperature;BMP_pressure;BME280_temperature;BME280_humidity;BME280_pressure;Samples;Min_cycle;Max_cycle;Signal;HPM_P1;HPM_P2
2023/02/22 00:00:26;;;;;;;75.38;20.58;;;6.90;99.90;;;;;;5104390;28;20225;-78
2023/02/22 00:02:58;;;;;;;60.60;20.52;;;7.00;99.90;;;;;;5104000;28;20186;-78
2023/02/22 00:05:26;;;;;;;46.33;19.92;;;7.10;99.90;;;;;;5107891;28;20562;-79
2023/02/22 00:07:52;;;;;;;93.50;21.30;;;7.40;99.90;;;;;;5103886;28;20326;-80
2023/02/22 00:10:19;;;;;;;76.25;21.83;;;7.40;99.90;;;;;;5104633;28;20195;-79
2023/02/22 00:12:47;;;;;;;66.82;20.10;;;7.20;99.90;;;;;;5111363;28;20206;-78
2023/02/22 00:15:14;;;;;;;92.82;21.92;;;7.20;99.90;;;;;;5116115;28;20180;-78
2023/02/22 00:17:40;;;;;;;67.80;20.75;;;7.30;99.90;;;;;;5115450;28;20206;-79
2023/02/22 00:20:12;;;;;;;73.47;20.83;;;7.30;99.90;;;;;;5104337;28;20502;-78
2023/02/22 00:22:42;;;;;;;60.08;21.45;;;7.30;99.90;;;;;;5105796;28;20745;-77
2023/02/22 00:25:08;;;;;;;85.63;20.58;;;7.40;99.90;;;;;;5099908;28;20183;-77
2023/02/22 00:27:35;;;;;;;45.15;19.67;;;7.30;99.90;;;;;;5097562;28;20595;-77
2023/02/22 00:30:01;;;;;;;60.80;21.85;;;7.40;99.90;;;;;;5078978;28;20166;-78
2023/02/22 00:32:26;;;;;;;54.97;19.73;;;7.30;99.90;;;;;;5097042;28;20202;-77
2023/02/22 00:34:55;;;;;;;58.60;19.98;;;7.30;99.90;;;;;;5096615;28;20170;-77
2023/02/22 00:37:21;;;;;;;64.07;20.60;;;7.30;99.90;;;;;;5078211;28;20173;-77
2023/02/22 00:39:48;;;;;;;87.90;21.52;;;7.50;99.90;;;;;;5096588;28;20165;-78
2023/02/22 00:42:15;;;;;;;106.82;23.27;;;7.40;99.90;;;;;;5096510;28;20626;-78
2023/02/22 00:44:40;;;;;;;67.90;22.42;;;7.40;99.90;;;;;;5096181;28;20253;-78
2023/02/22 00:47:07;;;;;;;81.05;22.08;;;7.60;99.90;;;;;;5096532;28;20284;-78
2023/02/22 00:49:33;;;;;;;96.28;23.17;;;7.20;99.90;;;;;;5096099;28;20174;-77
2023/02/22 00:51:59;;;;;;;60.03;22.58;;;7.30;99.90;;;;;;5094981;28;20575;-77
2023/02/22 00:54:25;;;;;;;95.10;20.65;;;7.20;99.90;;;;;;5095223;28;20166;-77
2023/02/22 00:56:51;;;;;;;57.95;20.95;;;7.40;99.90;;;;;;5077095;28;20172;-77
2023/02/22 00:59:16;;;;;;;88.32;20.92;;;7.30;99.90;;;;;;5076965;28;20178;-78
2023/02/22 01:01:42;;;;;;;98.25;21.02;;;7.30;99.90;;;;;;5095157;28;20162;-77
2023/02/22 01:04:08;;;;;;;126.18;20.90;;;7.20;99.90;;;;;;5095001;28;20227;-77
2023/02/22 01:06:34;;;;;;;212.90;22.50;;;7.40;99.90;;;;;;5077047;28;20169;-77
2023/02/22 01:09:01;;;;;;;49.72;19.08;;;7.10;99.90;;;;;;5095353;28;20165;-77
2023/02/22 01:11:27;;;;;;;121.22;19.83;;;7.00;99.90;;;;;;5095586;28;20166;-77
2023/02/22 01:13:54;;;;;;;150.82;20.88;;;6.90;99.90;;;;;;5094969;28;20650;-77
2023/02/22 01:16:20;;;;;;;77.13;19.02;;;6.80;99.90;;;;;;5094648;28;20162;-77
2023/02/22 01:18:46;;;;;;;87.82;20.98;;;6.60;99.90;;;;;;5095035;28;20244;-78
2023/02/22 01:21:11;;;;;;;104.55;20.05;;;6.80;99.90;;;;;;5094572;28;20304;-77
2023/02/22 01:23:37;;;;;;;103.10;22.33;;;7.00;99.90;;;;;;5094519;28;20181;-77
2023/02/22 01:26:04;;;;;;;154.70;20.50;;;7.10;99.90;;;;;;5076723;28;20605;-78
2023/02/22 01:28:31;;;;;;;66.68;18.33;;;6.90;99.90;;;;;;5094818;28;20213;-87
2023/02/22 01:30:56;;;;;;;152.68;20.20;;;7.00;99.90;;;;;;5094875;28;20166;-78
2023/02/22 01:33:23;;;;;;;125.57;19.80;;;6.90;99.90;;;;;;5094462;28;20250;-77
2023/02/22 01:35:49;;;;;;;88.88;19.92;;;6.60;99.90;;;;;;5094251;28;20245;-77
2023/02/22 01:38:15;;;;;;;101.65;20.67;;;6.70;99.90;;;;;;5075722;28;20170;-77
2023/02/22 01:40:42;;;;;;;87.72;19.25;;;6.80;99.90;;;;;;5094507;28;20166;-78
2023/02/22 01:43:23;;;;;;;128.10;19.45;;;6.70;99.90;;;;;;5094184;28;20555;-78
2023/02/22 01:46:02;;;;;;;77.88;20.05;;;6.60;99.90;;;;;;5094624;28;20193;-77
2023/02/22 01:48:44;;;;;;;64.45;19.58;;;6.70;99.90;;;;;;5094217;28;20213;-80
2023/02/22 01:51:22;;;;;;;86.47;20.45;;;6.50;99.90;;;;;;5094089;28;20240;-82
2023/02/22 01:53:54;;;;;;;115.55;21.45;;;6.40;99.90;;;;;;5094040;28;20189;-88
2023/02/22 01:56:22;;;;;;;60.55;19.75;;;6.20;99.90;;;;;;5094265;28;20664;-78
2023/02/22 01:58:52;;;;;;;92.93;19.50;;;6.10;99.90;;;;;;5094165;28;20158;-77
2023/02/22 02:01:21;;;;;;;55.47;18.98;;;6.20;99.90;;;;;;5093790;28;20223;-77
2023/02/22 02:03:49;;;;;;;62.22;18.92;;;6.50;99.90;;;;;;5093876;28;20182;-87
2023/02/22 02:06:15;;;;;;;67.57;19.75;;;6.50;99.90;;;;;;5094003;28;20170;-77
2023/02/22 02:09:03;;;;;;;60.35;20.60;;;6.40;99.90;;;;;;5093860;28;20256;-78
2023/02/22 02:11:31;;;;;;;55.50;21.63;;;6.40;99.90;;;;;;5093950;28;20236;-83
2023/02/22 02:13:57;;;;;;;53.90;20.85;;;6.20;99.90;;;;;;5093723;28;20213;-78
2023/02/22 02:16:39;;;;;;;72.65;18.80;;;6.10;99.90;;;;;;5094065;28;20166;-77
2023/02/22 02:19:33;;;;;;;46.60;19.13;;;6.20;99.90;;;;;;5093938;28;20161;-80
2023/02/22 02:22:24;;;;;;;39.58;18.05;;;6.20;99.90;;;;;;5055465;28;20656;-77
2023/02/22 02:25:44;;;;;;;40.60;17.60;;;6.20;99.90;;;;;;5075565;28;20173;-77
2023/02/22 02:28:43;;;;;;;53.08;18.02;;;6.30;99.90;;;;;;5011854;28;20212;-77
2023/02/22 02:31:27;;;;;;;39.67;19.73;;;6.20;99.90;;;;;;5093868;28;20169;-77
2023/02/22 02:34:04;;;;;;;44.88;18.35;;;6.20;99.90;;;;;;5093521;28;20196;-79
2023/02/22 02:36:56;;;;;;;43.05;18.55;;;6.20;99.90;;;;;;5093806;28;20184;-78
2023/02/22 02:39:33;;;;;;;36.72;17.60;;;6.20;99.90;;;;;;5080705;28;20614;-79
2023/02/22 02:42:01;;;;;;;36.58;18.33;;;6.10;99.90;;;;;;5107227;28;20170;-82
2023/02/22 02:44:32;;;;;;;35.97;17.20;;;6.10;99.90;;;;;;5102948;28;20181;-82
2023/02/22 02:47:11;;;;;;;34.55;16.75;;;6.20;99.90;;;;;;5083339;28;20692;-78
2023/02/22 02:49:54;;;;;;;37.92;17.88;;;6.20;99.90;;;;;;5075030;28;20215;-78
2023/02/22 02:52:23;;;;;;;29.85;16.65;;;6.30;99.90;;;;;;5075148;28;20198;-79
2023/02/22 02:54:50;;;;;;;35.00;16.73;;;6.40;99.90;;;;;;5093638;28;20527;-78
2023/02/22 02:57:16;;;;;;;39.80;17.83;;;6.40;99.90;;;;;;5093619;28;20166;-79
2023/02/22 02:59:42;;;;;;;31.42;16.90;;;6.30;99.90;;;;;;5093254;28;20162;-79
2023/02/22 03:02:28;;;;;;;34.42;16.23;;;6.20;99.90;;;;;;5093039;28;20162;-78
2023/02/22 03:05:14;;;;;;;32.83;16.55;;;6.20;99.90;;;;;;5075166;28;20169;-79
2023/02/22 03:07:58;;;;;;;31.42;16.23;;;6.00;99.90;;;;;;5093254;28;20205;-80
2023/02/22 03:10:42;;;;;;;32.58;16.00;;;6.00;99.90;;;;;;5094386;28;20216;-79
2023/02/22 03:13:35;;;;;;;25.17;14.73;;;6.00;99.90;;;;;;5095996;28;20555;-79
2023/02/22 03:16:06;;;;;;;23.95;14.60;;;6.00;99.90;;;;;;5093945;28;20174;-79
2023/02/22 03:18:41;;;;;;;24.13;14.73;;;6.00;99.90;;;;;;5092949;28;20165;-78
2023/02/22 03:21:23;;;;;;;29.77;15.75;;;6.00;99.90;;;;;;5094431;28;20173;-78
2023/02/22 03:23:53;;;;;;;24.27;13.70;;;6.00;99.90;;;;;;5092807;28;20197;-78
2023/02/22 03:26:24;;;;;;;29.80;15.73;;;6.20;99.90;;;;;;5092883;28;20165;-78
2023/02/22 03:28:53;;;;;;;25.90;15.15;;;6.10;99.90;;;;;;5093111;28;20178;-80
2023/02/22 03:31:27;;;;;;;29.10;14.82;;;5.90;99.90;;;;;;5074855;28;20174;-82
2023/02/22 03:33:59;;;;;;;27.20;14.60;;;5.80;99.90;;;;;;5093205;28;20218;-83
2023/02/22 03:36:29;;;;;;;27.35;14.45;;;5.70;99.90;;;;;;5093069;28;20249;-78
2023/02/22 03:38:58;;;;;;;27.38;14.60;;;5.80;99.90;;;;;;5093539;28;20166;-79
2023/02/22 03:41:27;;;;;;;29.80;14.75;;;5.70;99.90;;;;;;5093007;28;20185;-78
2023/02/22 03:43:58;;;;;;;27.05;14.02;;;5.80;99.90;;;;;;5093638;28;20198;-81
2023/02/22 03:46:28;;;;;;;31.98;15.60;;;5.70;99.90;;;;;;5093141;28;20165;-78
2023/02/22 03:48:56;;;;;;;28.13;14.27;;;5.70;99.90;;;;;;5092863;28;20292;-78
2023/02/22 03:51:23;;;;;;;32.58;15.10;;;5.60;99.90;;;;;;5092901;28;20166;-85
2023/02/22 03:53:49;;;;;;;26.25;14.18;;;5.40;99.90;;;;;;5093094;28;20178;-88
2023/02/22 03:56:24;;;;;;;28.17;15.70;;;5.40;99.90;;;;;;5074919;28;20188;-83
2023/02/22 03:58:50;;;;;;;31.45;16.35;;;5.50;99.90;;;;;;5092729;28;20161;-85
2023/02/22 04:01:16;;;;;;;24.05;14.35;;;5.40;99.90;;;;;;5093636;28;20189;-79
2023/02/22 04:03:42;;;;;;;32.72;15.02;;;5.50;99.90;;;;;;5097571;28;20504;-80
2023/02/22 04:06:09;;;;;;;26.05;14.52;;;5.50;99.90;;;;;;5096617;28;20182;-86
2023/02/22 04:08:34;;;;;;;23.95;14.43;;;5.50;99.90;;;;;;5078594;28;20206;-79
2023/02/22 04:11:00;;;;;;;29.20;15.18;;;5.40;99.90;;;;;;5096317;28;20185;-79
2023/02/22 04:13:26;;;;;;;29.58;15.63;;;5.40;99.90;;;;;;5096576;28;20315;-84
2023/02/22 04:15:52;;;;;;;27.17;14.85;;;5.60;99.90;;;;;;5096885;28;20185;-79
2023/02/22 04:18:17;;;;;;;26.80;14.07;;;5.70;99.90;;;;;;5078366;28;20252;-79
2023/02/22 04:20:43;;;;;;;27.45;14.05;;;5.70;99.90;;;;;;5096936;28;20165;-86
2023/02/22 04:23:09;;;;;;;23.45;14.32;;;5.80;99.90;;;;;;5096456;28;20186;-79
2023/02/22 04:25:35;;;;;;;25.27;13.85;;;5.80;99.90;;;;;;5096456;28;20162;-78
2023/02/22 04:28:01;;;;;;;22.83;12.77;;;6.00;99.90;;;;;;5096717;28;20697;-81
2023/02/22 04:30:28;;;;;;;27.83;13.75;;;6.10;99.90;;;;;;5096609;28;20170;-78
2023/02/22 04:32:55;;;;;;;20.33;13.00;;;6.10;99.90;;;;;;5096482;28;20212;-79
2023/02/22 04:35:20;;;;;;;22.00;13.35;;;6.20;99.90;;;;;;5096557;28;20170;-78
2023/02/22 04:37:46;;;;;;;24.65;13.30;;;6.10;99.90;;;;;;5096100;28;20174;-78
2023/02/22 04:40:11;;;;;;;22.50;13.90;;;6.20;99.90;;;;;;5096488;28;20658;-79
2023/02/22 04:42:38;;;;;;;29.02;13.27;;;6.10;99.90;;;;;;5100470;28;20658;-78
2023/02/22 04:45:06;;;;;;;22.50;13.95;;;6.20;99.90;;;;;;5078378;28;20173;-79
2023/02/22 04:47:33;;;;;;;23.95;13.73;;;6.20;99.90;;;;;;5084985;28;20204;-79
2023/02/22 04:49:59;;;;;;;25.35;13.38;;;6.40;99.90;;;;;;5107016;28;20185;-78
2023/02/22 04:52:25;;;;;;;26.27;14.15;;;6.40;99.90;;;;;;5085046;28;20280;-78
2023/02/22 04:54:51;;;;;;;21.35;13.90;;;6.40;99.90;;;;;;5105925;28;20166;-82
2023/02/22 04:57:17;;;;;;;18.88;12.93;;;6.50;99.90;;;;;;5097606;28;20176;-80
2023/02/22 04:59:42;;;;;;;19.55;12.20;;;6.20;99.90;;;;;;5096300;28;20166;-78
2023/02/22 05:02:11;;;;;;;27.30;13.45;;;6.10;99.90;;;;;;5104370;28;20170;-78
2023/02/22 05:04:37;;;;;;;19.15;12.32;;;6.10;99.90;;;;;;5093639;28;20166;-78
2023/02/22 05:07:03;;;;;;;18.65;12.30;;;6.20;99.90;;;;;;5111038;28;20275;-77
2023/02/22 05:09:29;;;;;;;19.17;12.38;;;6.20;99.90;;;;;;5098808;28;20158;-77
2023/02/22 05:11:55;;;;;;;26.50;10.68;;;6.10;99.90;;;;;;5116879;28;20200;-79
2023/02/22 05:14:21;;;;;;;17.42;11.75;;;6.20;99.90;;;;;;5098179;28;20186;-80
2023/02/22 05:16:50;;;;;;;17.08;11.82;;;6.10;99.90;;;;;;5109261;28;20257;-78
2023/02/22 05:19:15;;;;;;;22.60;13.27;;;5.90;99.90;;;;;;5106571;28;20166;-78
2023/02/22 05:21:41;;;;;;;17.33;11.05;;;6.10;99.90;;;;;;5114281;28;20172;-80
2023/02/22 05:24:07;;;;;;;18.52;11.65;;;6.20;99.90;;;;;;5106321;28;20249;-78
2023/02/22 05:26:35;;;;;;;13.75;10.10;;;6.10;99.90;;;;;;5077064;28;20233;-78
2023/02/22 05:29:00;;;;;;;15.90;10.63;;;6.20;99.90;;;;;;5107104;28;20162;-78
2023/02/22 05:31:26;;;;;;;17.23;11.38;;;6.10;99.90;;;;;;5085957;28;20177;-78
2023/02/22 05:33:52;;;;;;;13.50;10.63;;;6.00;99.90;;;;;;5102090;28;20258;-78
2023/02/22 05:36:17;;;;;;;16.35;11.70;;;6.20;99.90;;;;;;5103000;28;20162;-78
2023/02/22 05:38:43;;;;;;;12.82;10.20;;;6.30;99.90;;;;;;5105084;28;20166;-78
2023/02/22 05:41:18;;;;;;;15.07;11.05;;;6.50;99.90;;;;;;5099367;28;20162;-78
2023/02/22 05:43:45;;;;;;;13.57;9.93;;;6.60;99.90;;;;;;5092998;28;20189;-79
2023/02/22 05:46:14;;;;;;;18.75;11.40;;;6.60;99.90;;;;;;5107136;28;20161;-78
2023/02/22 05:48:40;;;;;;;14.15;10.38;;;6.50;99.90;;;;;;5110223;28;20194;-79
2023/02/22 05:51:08;;;;;;;13.68;9.85;;;6.50;99.90;;;;;;5107406;28;20173;-78
2023/02/22 05:53:34;;;;;;;11.48;9.18;;;6.50;99.90;;;;;;5108399;28;20709;-80
2023/02/22 05:55:59;;;;;;;15.00;9.93;;;6.40;99.90;;;;;;5112755;28;20201;-80
2023/02/22 05:58:25;;;;;;;18.80;9.48;;;6.20;99.90;;;;;;5114491;28;20178;-78
2023/02/22 06:00:50;;;;;;;12.38;9.57;;;6.30;99.90;;;;;;5114630;28;20192;-78
2023/02/22 06:03:16;;;;;;;13.00;10.05;;;6.20;99.90;;;;;;5115053;28;20196;-78
2023/02/22 06:05:42;;;;;;;14.32;10.05;;;6.30;99.90;;;;;;5116441;28;20204;-78
2023/02/22 06:08:08;;;;;;;18.30;9.75;;;6.50;99.90;;;;;;5082257;28;20201;-79
2023/02/22 06:10:34;;;;;;;10.93;8.98;;;6.50;99.90;;;;;;5098937;28;20209;-79
2023/02/22 06:13:02;;;;;;;16.58;10.13;;;6.50;99.90;;;;;;5116825;28;20196;-79
2023/02/22 06:15:28;;;;;;;11.75;9.07;;;6.50;99.90;;;;;;5116254;28;20170;-82
2023/02/22 06:17:55;;;;;;;13.55;9.45;;;6.50;99.90;;;;;;5098399;28;20178;-77
2023/02/22 06:20:23;;;;;;;17.00;9.63;;;6.60;99.90;;;;;;5116782;28;20169;-78
2023/02/22 06:22:51;;;;;;;12.45;8.73;;;6.70;99.90;;;;;;5115943;28;20204;-78
2023/02/22 06:25:20;;;;;;;10.70;8.98;;;6.60;99.90;;;;;;5115214;28;20162;-78
2023/02/22 06:27:50;;;;;;;11.63;9.35;;;6.50;99.90;;;;;;5096409;28;20205;-78
2023/02/22 06:30:20;;;;;;;12.90;9.60;;;6.50;99.90;;;;;;5099102;28;20150;-80
2023/02/22 06:32:45;;;;;;;15.68;9.88;;;6.60;99.90;;;;;;5115270;28;20189;-80
2023/02/22 06:35:11;;;;;;;13.02;9.50;;;6.80;99.90;;;;;;5115503;28;20181;-79
2023/02/22 06:37:38;;;;;;;25.02;10.02;;;6.80;99.90;;;;;;5112113;28;20174;-78
2023/02/22 06:40:05;;;;;;;18.77;10.07;;;7.00;99.90;;;;;;5112866;28;20221;-78
2023/02/22 06:42:31;;;;;;;12.55;9.00;;;7.10;99.90;;;;;;5114468;28;20189;-79
2023/02/22 06:44:57;;;;;;;19.52;10.50;;;7.20;99.90;;;;;;5116020;28;20169;-77
2023/02/22 06:47:22;;;;;;;20.38;9.38;;;7.00;99.90;;;;;;5092526;28;20194;-78
2023/02/22 06:49:53;;;;;;;19.80;10.15;;;7.00;99.90;;;;;;5113621;28;20204;-78
2023/02/22 06:52:20;;;;;;;24.08;10.13;;;7.10;99.90;;;;;;5110597;28;20224;-79
2023/02/22 06:54:46;;;;;;;16.05;10.05;;;7.20;99.90;;;;;;5088227;28;20202;-78
2023/02/22 06:57:11;;;;;;;12.23;8.93;;;7.20;99.90;;;;;;5103512;28;20170;-78
2023/02/22 06:59:37;;;;;;;19.67;8.82;;;7.10;99.90;;;;;;5100736;28;20170;-78
2023/02/22 07:02:02;;;;;;;24.50;10.40;;;7.00;99.90;;;;;;5106528;28;20208;-78
2023/02/22 07:04:28;;;;;;;11.73;8.73;;;7.10;99.90;;;;;;5103644;28;20170;-78
2023/02/22 07:06:55;;;;;;;13.27;9.48;;;7.20;99.90;;;;;;5099757;28;20598;-78
2023/02/22 07:09:21;;;;;;;21.13;9.88;;;7.30;99.90;;;;;;5083886;28;20169;-78
2023/02/22 07:11:46;;;;;;;24.70;9.52;;;7.30;99.90;;;;;;5097963;28;20202;-78
2023/02/22 07:14:12;;;;;;;21.40;9.95;;;7.10;99.90;;;;;;5097635;28;20193;-78
2023/02/22 07:16:38;;;;;;;17.55;9.18;;;7.10;99.90;;;;;;5097099;28;20169;-78
2023/02/22 07:19:03;;;;;;;23.00;9.85;;;7.20;99.90;;;;;;5096922;28;20697;-79
2023/02/22 07:21:29;;;;;;;17.73;8.75;;;7.20;99.90;;;;;;5100792;28;20166;-79
2023/02/22 07:23:57;;;;;;;16.88;12.65;;;7.00;99.90;;;;;;5101262;28;20186;-79
2023/02/22 07:26:25;;;;;;;16.67;10.00;;;7.20;99.90;;;;;;5098926;28;20630;-79
2023/02/22 07:28:50;;;;;;;11.45;9.00;;;7.10;99.90;;;;;;5096763;28;20232;-78
2023/02/22 07:31:17;;;;;;;15.85;10.25;;;7.20;99.90;;;;;;5096163;28;20641;-78
2023/02/22 07:33:44;;;;;;;21.92;10.40;;;7.10;99.90;;;;;;5094584;28;20185;-79
2023/02/22 07:36:12;;;;;;;20.88;9.48;;;7.20;99.90;;;;;;5098836;28;20172;-78
2023/02/22 07:38:38;;;;;;;13.25;10.20;;;7.50;99.90;;;;;;5105992;28;20185;-79
2023/02/22 07:41:04;;;;;;;22.20;10.68;;;7.70;99.90;;;;;;5105500;28;20712;-78
2023/02/22 07:43:30;;;;;;;25.83;10.60;;;7.90;99.90;;;;;;5109918;28;20189;-78
2023/02/22 07:46:01;;;;;;;20.38;10.27;;;8.00;99.90;;;;;;5094058;28;20158;-78
2023/02/22 07:48:31;;;;;;;21.67;10.68;;;8.10;99.90;;;;;;5109823;28;20212;-80
2023/02/22 07:50:57;;;;;;;23.45;11.35;;;8.00;99.90;;;;;;5107368;28;20166;-83
2023/02/22 07:53:28;;;;;;;20.88;10.70;;;8.10;99.90;;;;;;5083563;28;20215;-82
2023/02/22 07:55:55;;;;;;;15.20;10.70;;;8.10;99.90;;;;;;5100647;28;20177;-83
2023/02/22 07:58:23;;;;;;;23.92;11.75;;;8.20;99.90;;;;;;5100947;28;20162;-79
2023/02/22 08:00:49;;;;;;;20.23;11.40;;;8.40;99.90;;;;;;5097366;28;20169;-80
2023/02/22 08:03:17;;;;;;;18.08;12.35;;;8.50;99.90;;;;;;5096569;28;20178;-83
2023/02/22 08:05:48;;;;;;;24.27;12.70;;;8.70;99.90;;;;;;5096640;28;20201;-78
2023/02/22 08:08:14;;;;;;;16.05;10.65;;;8.40;99.90;;;;;;5096577;28;20297;-82
2023/02/22 08:10:40;;;;;;;17.65;11.70;;;8.50;99.90;;;;;;5096483;28;20594;-78
2023/02/22 08:13:07;;;;;;;20.95;11.38;;;8.50;99.90;;;;;;5096173;28;20185;-78
2023/02/22 08:15:35;;;;;;;20.08;10.73;;;8.60;99.90;;;;;;5096549;28;20158;-79
2023/02/22 08:18:02;;;;;;;18.50;10.75;;;8.70;99.90;;;;;;5095957;28;20534;-79
2023/02/22 08:20:29;;;;;;;13.52;10.25;;;8.90;99.90;;;;;;5096237;28;20158;-78
2023/02/22 08:22:55;;;;;;;14.75;10.55;;;9.00;99.90;;;;;;5095975;28;20190;-79
2023/02/22 08:25:24;;;;;;;32.15;12.27;;;9.10;99.90;;;;;;5096203;28;20170;-79
2023/02/22 08:27:50;;;;;;;15.20;10.48;;;9.20;99.90;;;;;;5077519;28;20205;-78
2023/02/22 08:30:22;;;;;;;18.30;11.85;;;9.30;99.90;;;;;;5096095;28;20771;-78
2023/02/22 08:32:48;;;;;;;22.40;13.27;;;9.50;99.90;;;;;;5095830;28;20243;-78
2023/02/22 08:35:16;;;;;;;14.15;11.13;;;9.50;99.90;;;;;;5096462;28;20177;-78
2023/02/22 08:37:47;;;;;;;15.38;11.05;;;9.70;99.90;;;;;;5098842;28;20177;-79
2023/02/22 08:40:16;;;;;;;20.50;10.60;;;9.70;99.90;;;;;;5104879;28;20170;-78
2023/02/22 08:42:42;;;;;;;19.63;10.25;;;9.80;99.90;;;;;;5079238;28;20201;-79
2023/02/22 08:45:09;;;;;;;17.33;10.40;;;9.80;99.90;;;;;;5099151;28;20173;-78
2023/02/22 08:47:35;;;;;;;19.02;11.95;;;9.90;99.90;;;;;;5097463;28;20292;-79
2023/02/22 08:50:00;;;;;;;15.80;10.60;;;10.10;99.90;;;;;;5095344;28;20209;-79
2023/02/22 08:52:26;;;;;;;18.05;10.45;;;10.20;99.90;;;;;;5095261;28;20518;-86
2023/02/22 08:54:51;;;;;;;15.77;10.13;;;10.10;99.90;;;;;;5096420;28;20189;-79
2023/02/22 08:57:17;;;;;;;14.88;9.90;;;10.10;99.90;;;;;;5095465;28;20752;-78
2023/02/22 08:59:43;;;;;;;15.15;9.73;;;10.40;99.90;;;;;;5096229;28;20178;-78
2023/02/22 09:02:17;;;;;;;19.08;8.82;;;10.50;99.90;;;;;;5095244;28;20170;-79
2023/02/22 09:04:44;;;;;;;15.27;9.10;;;10.40;99.90;;;;;;5077136;28;20564;-79
2023/02/22 09:07:10;;;;;;;22.55;9.60;;;10.30;99.90;;;;;;5095800;28;20193;-78
2023/02/22 09:09:36;;;;;;;22.77;10.35;;;10.30;99.90;;;;;;5095486;28;20209;-78
2023/02/22 09:12:02;;;;;;;14.45;8.70;;;10.30;99.90;;;;;;5077016;28;20197;-79
2023/02/22 09:14:28;;;;;;;18.98;10.57;;;10.50;99.90;;;;;;5095102;28;20193;-78
2023/02/22 09:16:53;;;;;;;12.43;10.55;;;10.50;99.90;;;;;;5095593;28;20177;-78
2023/02/22 09:19:19;;;;;;;17.42;11.02;;;10.50;99.90;;;;;;5095802;28;20166;-78
2023/02/22 09:21:50;;;;;;;21.60;10.77;;;10.60;99.90;;;;;;5095120;28;20622;-78
2023/02/22 09:24:16;;;;;;;26.70;11.57;;;10.60;99.90;;;;;;5094939;28;20194;-79
2023/02/22 09:26:46;;;;;;;14.07;10.90;;;10.80;99.90;;;;;;5095328;28;20185;-78
2023/02/22 09:29:11;;;;;;;16.92;10.45;;;10.90;99.90;;;;;;5077490;28;20165;-79
2023/02/22 09:31:39;;;;;;;36.33;10.68;;;11.10;99.90;;;;;;5095607;28;20629;-79
2023/02/22 09:34:12;;;;;;;21.85;11.40;;;11.20;99.90;;;;;;5077177;28;20212;-79
2023/02/22 09:36:52;;;;;;;19.02;12.00;;;11.30;99.90;;;;;;5076665;28;20247;-78
2023/02/22 09:39:18;;;;;;;14.25;10.55;;;11.20;99.90;;;;;;5076726;28;20531;-77
2023/02/22 09:42:01;;;;;;;17.73;10.63;;;11.20;99.90;;;;;;5095122;28;20170;-80
2023/02/22 09:44:52;;;;;;;20.92;11.32;;;11.10;99.90;;;;;;5094681;28;20172;-78
2023/02/22 09:47:31;;;;;;;24.08;10.98;;;11.10;99.90;;;;;;5094549;28;20208;-77
2023/02/22 09:50:14;;;;;;;17.05;11.88;;;11.00;99.90;;;;;;5095454;28;20181;-80
2023/02/22 09:52:45;;;;;;;12.52;10.75;;;11.10;99.90;;;;;;5076308;28;20650;-82
2023/02/22 09:55:40;;;;;;;16.10;11.85;;;11.10;99.90;;;;;;5076586;28;20253;-78
2023/02/22 09:58:19;;;;;;;38.90;10.13;;;11.10;99.90;;;;;;5079197;28;20173;-78
2023/02/22 10:00:50;;;;;;;20.73;11.65;;;11.20;99.90;;;;;;5095202;28;20165;-80
2023/02/22 10:03:43;;;;;;;21.95;11.77;;;11.30;99.90;;;;;;5095070;28;20197;-83
2023/02/22 10:06:20;;;;;;;15.77;10.98;;;11.40;99.90;;;;;;5099246;28;20634;-79
2023/02/22 10:08:46;;;;;;;23.17;10.48;;;11.40;99.90;;;;;;5108444;28;20208;-78
2023/02/22 10:11:49;;;;;;;15.10;10.45;;;11.60;99.90;;;;;;5109294;28;20172;-78
2023/02/22 10:14:40;;;;;;;29.65;11.55;;;11.70;99.90;;;;;;5094775;28;20276;-79
2023/02/22 10:17:16;;;;;;;24.33;10.95;;;11.80;99.90;;;;;;5095477;28;20170;-81
2023/02/22 10:19:45;;;;;;;18.40;10.35;;;12.00;99.90;;;;;;5077249;28;20166;-81
2023/02/22 10:22:47;;;;;;;17.55;10.60;;;12.00;99.90;;;;;;5095495;28;20184;-79
2023/02/22 10:25:19;;;;;;;15.77;9.95;;;12.00;99.90;;;;;;5096144;28;20307;-79
2023/02/22 10:28:02;;;;;;;25.63;11.15;;;12.20;99.90;;;;;;5095394;28;20205;-80
2023/02/22 10:30:57;;;;;;;17.02;10.95;;;12.20;99.90;;;;;;5094720;28;20179;-79
2023/02/22 10:33:30;;;;;;;17.90;11.80;;;12.30;99.90;;;;;;5086400;28;20628;-79
2023/02/22 10:35:56;;;;;;;19.65;11.65;;;12.30;99.90;;;;;;5093865;28;20205;-78
2023/02/22 10:38:32;;;;;;;11.32;9.95;;;12.40;99.90;;;;;;5075441;28;20282;-78
2023/02/22 10:41:09;;;;;;;14.50;10.95;;;12.50;99.90;;;;;;5093335;28;20178;-78
2023/02/22 10:43:40;;;;;;;32.40;11.65;;;12.70;99.90;;;;;;5093193;28;20185;-78
2023/02/22 10:46:08;;;;;;;17.30;11.90;;;12.70;99.90;;;;;;5093355;28;20162;-78
2023/02/22 10:48:37;;;;;;;20.17;11.98;;;12.80;99.90;;;;;;5092996;28;20208;-78
2023/02/22 10:51:07;;;;;;;16.20;12.15;;;12.90;99.90;;;;;;5093317;28;20190;-78
2023/02/22 10:53:36;;;;;;;19.55;13.68;;;12.80;99.90;;;;;;5092963;28;20185;-78
2023/02/22 10:56:08;;;;;;;20.52;13.38;;;12.60;99.90;;;;;;5094507;28;20154;-88
2023/02/22 10:58:50;;;;;;;17.85;13.43;;;12.80;99.90;;;;;;5095651;28;20177;-88
2023/02/22 11:01:20;;;;;;;16.65;13.52;;;12.90;99.90;;;;;;5095621;28;20203;-89
2023/02/22 11:04:04;;;;;;;17.20;13.05;;;13.10;99.90;;;;;;5095792;28;20173;-89
2023/02/22 11:06:31;;;;;;;24.80;13.77;;;13.20;99.90;;;;;;5076945;28;20215;-79
2023/02/22 11:09:11;;;;;;;28.05;13.73;;;13.10;99.90;;;;;;5094645;28;20218;-83
2023/02/22 11:11:40;;;;;;;22.40;13.13;;;13.20;99.90;;;;;;5093404;28;20172;-81
2023/02/22 11:14:09;;;;;;;16.40;13.25;;;13.20;99.90;;;;;;5093840;28;20181;-84
2023/02/22 11:16:42;;;;;;;18.95;14.05;;;13.00;99.90;;;;;;5093739;28;20177;-89
2023/02/22 11:19:19;;;;;;;26.10;14.48;;;13.00;99.90;;;;;;5093818;28;20165;-78
2023/02/22 11:21:47;;;;;;;23.15;14.95;;;12.90;99.90;;;;;;5093253;28;20220;-84
2023/02/22 11:24:14;;;;;;;24.42;15.43;;;13.00;99.90;;;;;;5093408;28;20186;-86
2023/02/22 11:26:47;;;;;;;20.90;15.27;;;13.20;99.90;;;;;;5093654;28;20200;-89
2023/02/22 11:29:31;;;;;;;24.55;15.70;;;13.20;99.90;;;;;;5093872;28;20174;-80
2023/02/22 11:31:59;;;;;;;23.70;15.85;;;13.30;99.90;;;;;;5093024;28;20248;-82
2023/02/22 11:34:35;;;;;;;23.80;16.58;;;13.20;99.90;;;;;;5093465;28;20166;-85
2023/02/22 11:37:28;;;;;;;24.48;16.58;;;13.20;99.90;;;;;;5093829;28;20162;-84
2023/02/22 11:40:23;;;;;;;22.40;16.05;;;13.10;99.90;;;;;;5093436;28;20673;-82
2023/02/22 11:43:07;;;;;;;26.60;16.60;;;13.10;99.90;;;;;;5062015;28;20202;-85
2023/02/22 11:45:34;;;;;;;24.95;17.75;;;13.10;99.90;;;;;;5092817;28;20166;-80
2023/02/22 11:48:03;;;;;;;25.50;17.75;;;13.10;99.90;;;;;;5074755;28;20224;-82
2023/02/22 11:50:33;;;;;;;33.67;18.58;;;13.20;99.90;;;;;;5093502;28;20178;-83
2023/02/22 11:53:34;;;;;;;26.42;18.67;;;13.40;99.90;;;;;;5093559;28;20590;-78
2023/02/22 11:56:20;;;;;;;31.83;18.42;;;13.60;99.90;;;;;;5093622;28;20162;-80
2023/02/22 11:59:25;;;;;;;28.55;19.08;;;13.50;99.90;;;;;;5093245;28;20212;-85
2023/02/22 12:01:59;;;;;;;27.55;17.63;;;13.60;99.90;;;;;;5091073;28;20186;-84
2023/02/22 12:04:46;;;;;;;25.83;18.40;;;13.80;99.90;;;;;;5093507;28;20165;-87
2023/02/22 12:07:35;;;;;;;28.52;18.30;;;14.00;99.90;;;;;;5093574;28;20201;-87
2023/02/22 12:10:21;;;;;;;30.15;19.77;;;14.10;99.90;;;;;;5093136;28;20166;-86
2023/02/22 12:13:00;;;;;;;30.98;18.02;;;14.00;99.90;;;;;;5093572;28;20213;-89
2023/02/22 12:15:34;;;;;;;24.05;18.55;;;13.90;99.90;;;;;;5093837;28;20162;-87
2023/02/22 12:18:21;;;;;;;29.15;19.50;;;13.80;99.90;;;;;;5093577;28;20192;-88
2023/02/22 12:20:57;;;;;;;21.13;17.27;;;13.90;99.90;;;;;;5075448;28;20514;-86
2023/02/22 12:23:52;;;;;;;32.00;19.02;;;13.80;99.90;;;;;;5095281;28;20189;-80
2023/02/22 12:26:38;;;;;;;28.48;20.70;;;13.90;99.90;;;;;;5097054;28;20193;-89
2023/02/22 12:29:29;;;;;;;29.00;20.60;;;13.60;99.90;;;;;;5103634;28;20281;-83
2023/02/22 12:32:17;;;;;;;41.47;23.02;;;13.50;99.90;;;;;;5101876;28;20204;-85
2023/02/22 12:34:49;;;;;;;32.83;21.50;;;13.60;99.90;;;;;;5084353;28;20162;-77
2023/02/22 12:37:30;;;;;;;35.53;25.48;;;13.80;99.90;;;;;;5088318;28;20170;-85
2023/02/22 12:40:44;;;;;;;34.90;22.13;;;14.00;99.90;;;;;;5098217;28;20357;-89
2023/02/22 12:43:21;;;;;;;34.53;21.70;;;14.00;99.90;;;;;;5078991;28;20202;-89
2023/02/22 12:46:08;;;;;;;38.35;22.00;;;13.80;99.90;;;;;;5096581;28;20251;-85
2023/02/22 12:48:56;;;;;;;38.70;24.42;;;13.70;99.90;;;;;;5078601;28;20567;-88
2023/02/22 12:51:27;;;;;;;41.53;25.33;;;13.70;99.90;;;;;;5099571;28;20169;-89
2023/02/22 12:54:21;;;;;;;36.20;23.75;;;13.70;99.90;;;;;;5102197;28;20170;-80
2023/02/22 12:56:50;;;;;;;32.30;22.95;;;13.80;99.90;;;;;;5108622;28;20182;-79